Archival Weather

Aeroparque Jorge Newbery

Aeroparque Jorge Newbery, Argentina (SABE)

Report from: Saturday, May 14, 2022 3:00 AM -03
Current time: Sunday, June 26, 2022 3:04 PM -03

Current weather
Weather history
Weather forecast

Temperature15.0°C (59.0°F)
Dew point13.0°C (55.4°F)
Winds 5 kts (2.6 m/s, 5.8 mph) West-Northwest (300°)
Clouds Sky clear
Altimeter30.09 in.Hg (1019 mB)
Relative humidity88 %
Density altitude14 ft. (4 m)
Remarks Ceiling and visibility OK
Corrected report
No significant changes expected in the next two hours
Flight conditions Visual Meteorological Conditions
Raw dataCOR SABE 140600Z 30005KT CAVOK 15/13 Q1019 NOSIG
An error has occurred. This application may no longer respond until reloaded. Reload 🗙